sensor_id;sensor_type;location;lat;lon;timestamp;P1;durP1;ratioP1;P2;durP2;ratioP2
2464;SDS011;1244;54.326;10.074;2023-02-25T00:00:23;0.40;;;0.40;;
2464;SDS011;1244;54.326;10.074;2023-02-25T00:02:49;0.27;;;0.27;;
2464;SDS011;1244;54.326;10.074;2023-02-25T00:05:16;0.40;;;0.40;;
2464;SDS011;1244;54.326;10.074;2023-02-25T00:07:42;0.30;;;0.30;;
2464;SDS011;1244;54.326;10.074;2023-02-25T00:10:08;0.30;;;0.30;;
2464;SDS011;1244;54.326;10.074;2023-02-25T00:12:36;0.40;;;0.40;;
2464;SDS011;1244;54.326;10.074;2023-02-25T00:15:02;0.40;;;0.40;;
2464;SDS011;1244;54.326;10.074;2023-02-25T00:17:30;0.37;;;0.37;;
2464;SDS011;1244;54.326;10.074;2023-02-25T00:19:56;0.40;;;0.40;;
2464;SDS011;1244;54.326;10.074;2023-02-25T00:22:22;0.40;;;0.40;;
2464;SDS011;1244;54.326;10.074;2023-02-25T00:24:51;0.30;;;0.30;;
2464;SDS011;1244;54.326;10.074;2023-02-25T00:27:21;0.40;;;0.40;;
2464;SDS011;1244;54.326;10.074;2023-02-25T00:29:51;0.37;;;0.37;;
2464;SDS011;1244;54.326;10.074;2023-02-25T00:32:17;0.40;;;0.40;;
2464;SDS011;1244;54.326;10.074;2023-02-25T00:34:43;0.30;;;0.30;;
2464;SDS011;1244;54.326;10.074;2023-02-25T00:37:10;0.40;;;0.40;;
2464;SDS011;1244;54.326;10.074;2023-02-25T00:39:35;0.40;;;0.40;;
2464;SDS011;1244;54.326;10.074;2023-02-25T00:42:11;0.30;;;0.30;;
2464;SDS011;1244;54.326;10.074;2023-02-25T00:44:38;0.40;;;0.40;;
2464;SDS011;1244;54.326;10.074;2023-02-25T00:47:06;0.30;;;0.30;;
2464;SDS011;1244;54.326;10.074;2023-02-25T00:49:32;0.30;;;0.30;;
2464;SDS011;1244;54.326;10.074;2023-02-25T00:51:58;0.30;;;0.30;;
2464;SDS011;1244;54.326;10.074;2023-02-25T00:54:24;0.37;;;0.37;;
2464;SDS011;1244;54.326;10.074;2023-02-25T00:56:49;0.30;;;0.30;;
2464;SDS011;1244;54.326;10.074;2023-02-25T00:59:15;0.30;;;0.30;;
2464;SDS011;1244;54.326;10.074;2023-02-25T01:01:40;0.30;;;0.30;;
2464;SDS011;1244;54.326;10.074;2023-02-25T01:04:07;0.30;;;0.30;;
2464;SDS011;1244;54.326;10.074;2023-02-25T01:06:33;0.30;;;0.30;;
2464;SDS011;1244;54.326;10.074;2023-02-25T01:09:00;0.40;;;0.40;;
2464;SDS011;1244;54.326;10.074;2023-02-25T01:11:28;0.30;;;0.30;;
2464;SDS011;1244;54.326;10.074;2023-02-25T01:13:56;0.40;;;0.40;;
2464;SDS011;1244;54.326;10.074;2023-02-25T01:16:24;0.40;;;0.40;;
2464;SDS011;1244;54.326;10.074;2023-02-25T01:18:55;0.30;;;0.30;;
2464;SDS011;1244;54.326;10.074;2023-02-25T01:21:27;0.37;;;0.37;;
2464;SDS011;1244;54.326;10.074;2023-02-25T01:24:00;0.40;;;0.40;;
2464;SDS011;1244;54.326;10.074;2023-02-25T01:26:32;0.40;;;0.40;;
2464;SDS011;1244;54.326;10.074;2023-02-25T01:29:05;0.40;;;0.40;;
2464;SDS011;1244;54.326;10.074;2023-02-25T01:31:32;0.40;;;0.40;;
2464;SDS011;1244;54.326;10.074;2023-02-25T01:33:58;0.40;;;0.40;;
2464;SDS011;1244;54.326;10.074;2023-02-25T01:36:25;0.50;;;0.50;;
2464;SDS011;1244;54.326;10.074;2023-02-25T01:38:51;0.40;;;0.40;;
2464;SDS011;1244;54.326;10.074;2023-02-25T01:41:17;0.40;;;0.40;;
2464;SDS011;1244;54.326;10.074;2023-02-25T01:43:42;0.40;;;0.40;;
2464;SDS011;1244;54.326;10.074;2023-02-25T01:46:25;0.40;;;0.40;;
2464;SDS011;1244;54.326;10.074;2023-02-25T01:48:51;0.40;;;0.40;;
2464;SDS011;1244;54.326;10.074;2023-02-25T01:51:16;0.20;;;0.20;;
2464;SDS011;1244;54.326;10.074;2023-02-25T01:53:43;0.50;;;0.50;;
2464;SDS011;1244;54.326;10.074;2023-02-25T01:56:11;0.40;;;0.40;;
2464;SDS011;1244;54.326;10.074;2023-02-25T01:58:41;0.30;;;0.30;;
2464;SDS011;1244;54.326;10.074;2023-02-25T02:01:10;0.40;;;0.40;;
2464;SDS011;1244;54.326;10.074;2023-02-25T02:03:38;0.37;;;0.37;;
2464;SDS011;1244;54.326;10.074;2023-02-25T02:06:14;0.30;;;0.30;;
2464;SDS011;1244;54.326;10.074;2023-02-25T02:08:52;0.40;;;0.40;;
2464;SDS011;1244;54.326;10.074;2023-02-25T02:11:18;0.30;;;0.30;;
2464;SDS011;1244;54.326;10.074;2023-02-25T02:13:45;0.30;;;0.30;;
2464;SDS011;1244;54.326;10.074;2023-02-25T02:16:21;0.30;;;0.30;;
2464;SDS011;1244;54.326;10.074;2023-02-25T02:18:55;0.40;;;0.40;;
2464;SDS011;1244;54.326;10.074;2023-02-25T02:24:41;0.33;;;0.33;;
2464;SDS011;1244;54.326;10.074;2023-02-25T02:27:29;0.40;;;0.40;;
2464;SDS011;1244;54.326;10.074;2023-02-25T02:33:22;0.30;;;0.30;;
2464;SDS011;1244;54.326;10.074;2023-02-25T02:38:43;0.40;;;0.40;;
2464;SDS011;1244;54.326;10.074;2023-02-25T02:41:28;0.47;;;0.47;;
2464;SDS011;1244;54.326;10.074;2023-02-25T02:44:10;0.40;;;0.40;;
2464;SDS011;1244;54.326;10.074;2023-02-25T02:46:54;0.30;;;0.30;;
2464;SDS011;1244;54.326;10.074;2023-02-25T02:52:16;0.30;;;0.30;;
2464;SDS011;1244;54.326;10.074;2023-02-25T02:54:48;0.40;;;0.40;;
2464;SDS011;1244;54.326;10.074;2023-02-25T02:57:20;0.50;;;0.50;;
2464;SDS011;1244;54.326;10.074;2023-02-25T02:59:52;0.40;;;0.40;;
2464;SDS011;1244;54.326;10.074;2023-02-25T03:02:26;0.30;;;0.30;;
2464;SDS011;1244;54.326;10.074;2023-02-25T03:04:55;0.40;;;0.40;;
2464;SDS011;1244;54.326;10.074;2023-02-25T03:07:25;0.40;;;0.40;;
2464;SDS011;1244;54.326;10.074;2023-02-25T03:09:53;0.40;;;0.40;;
2464;SDS011;1244;54.326;10.074;2023-02-25T03:12:21;0.40;;;0.40;;
2464;SDS011;1244;54.326;10.074;2023-02-25T03:14:47;0.40;;;0.40;;
2464;SDS011;1244;54.326;10.074;2023-02-25T03:17:17;0.40;;;0.40;;
2464;SDS011;1244;54.326;10.074;2023-02-25T03:19:49;0.40;;;0.40;;
2464;SDS011;1244;54.326;10.074;2023-02-25T03:22:30;0.40;;;0.40;;
2464;SDS011;1244;54.326;10.074;2023-02-25T03:25:11;0.40;;;0.40;;
2464;SDS011;1244;54.326;10.074;2023-02-25T03:27:45;0.40;;;0.40;;
2464;SDS011;1244;54.326;10.074;2023-02-25T03:33:01;0.40;;;0.40;;
2464;SDS011;1244;54.326;10.074;2023-02-25T03:35:30;0.50;;;0.50;;
2464;SDS011;1244;54.326;10.074;2023-02-25T03:38:00;0.40;;;0.40;;
2464;SDS011;1244;54.326;10.074;2023-02-25T03:40:31;0.50;;;0.50;;
2464;SDS011;1244;54.326;10.074;2023-02-25T03:43:00;0.50;;;0.50;;
2464;SDS011;1244;54.326;10.074;2023-02-25T03:45:31;0.40;;;0.40;;
2464;SDS011;1244;54.326;10.074;2023-02-25T03:47:59;0.40;;;0.40;;
2464;SDS011;1244;54.326;10.074;2023-02-25T03:50:29;0.40;;;0.40;;
2464;SDS011;1244;54.326;10.074;2023-02-25T03:52:59;0.43;;;0.43;;
2464;SDS011;1244;54.326;10.074;2023-02-25T03:55:24;0.40;;;0.40;;
2464;SDS011;1244;54.326;10.074;2023-02-25T03:57:50;0.50;;;0.50;;
2464;SDS011;1244;54.326;10.074;2023-02-25T04:00:18;0.40;;;0.40;;
2464;SDS011;1244;54.326;10.074;2023-02-25T04:02:48;0.40;;;0.40;;
2464;SDS011;1244;54.326;10.074;2023-02-25T04:05:15;0.40;;;0.40;;
2464;SDS011;1244;54.326;10.074;2023-02-25T04:07:42;0.40;;;0.40;;
2464;SDS011;1244;54.326;10.074;2023-02-25T04:10:08;0.47;;;0.47;;
2464;SDS011;1244;54.326;10.074;2023-02-25T04:12:36;0.40;;;0.40;;
2464;SDS011;1244;54.326;10.074;2023-02-25T04:15:02;0.40;;;0.40;;
2464;SDS011;1244;54.326;10.074;2023-02-25T04:17:29;0.40;;;0.40;;
2464;SDS011;1244;54.326;10.074;2023-02-25T04:19:55;0.40;;;0.40;;
2464;SDS011;1244;54.326;10.074;2023-02-25T04:22:21;0.40;;;0.40;;
2464;SDS011;1244;54.326;10.074;2023-02-25T04:24:47;0.50;;;0.50;;
2464;SDS011;1244;54.326;10.074;2023-02-25T04:27:12;0.47;;;0.47;;
2464;SDS011;1244;54.326;10.074;2023-02-25T04:29:40;0.40;;;0.40;;
2464;SDS011;1244;54.326;10.074;2023-02-25T04:32:06;0.50;;;0.50;;
2464;SDS011;1244;54.326;10.074;2023-02-25T04:34:32;0.40;;;0.40;;
2464;SDS011;1244;54.326;10.074;2023-02-25T04:36:57;0.40;;;0.40;;
2464;SDS011;1244;54.326;10.074;2023-02-25T04:39:26;0.40;;;0.40;;
2464;SDS011;1244;54.326;10.074;2023-02-25T04:41:51;0.47;;;0.47;;
2464;SDS011;1244;54.326;10.074;2023-02-25T04:44:17;0.40;;;0.40;;
2464;SDS011;1244;54.326;10.074;2023-02-25T04:46:43;0.43;;;0.43;;
2464;SDS011;1244;54.326;10.074;2023-02-25T04:49:09;0.50;;;0.50;;
2464;SDS011;1244;54.326;10.074;2023-02-25T04:51:36;0.43;;;0.43;;
2464;SDS011;1244;54.326;10.074;2023-02-25T04:54:02;0.50;;;0.50;;
2464;SDS011;1244;54.326;10.074;2023-02-25T04:56:28;0.40;;;0.40;;
2464;SDS011;1244;54.326;10.074;2023-02-25T04:58:55;0.40;;;0.40;;
2464;SDS011;1244;54.326;10.074;2023-02-25T05:01:21;0.40;;;0.40;;
2464;SDS011;1244;54.326;10.074;2023-02-25T05:03:46;0.50;;;0.50;;
2464;SDS011;1244;54.326;10.074;2023-02-25T05:06:12;0.30;;;0.30;;
2464;SDS011;1244;54.326;10.074;2023-02-25T05:08:37;0.40;;;0.40;;
2464;SDS011;1244;54.326;10.074;2023-02-25T05:11:03;0.40;;;0.40;;
2464;SDS011;1244;54.326;10.074;2023-02-25T05:13:29;0.40;;;0.40;;
2464;SDS011;1244;54.326;10.074;2023-02-25T05:16:13;0.40;;;0.40;;
2464;SDS011;1244;54.326;10.074;2023-02-25T05:18:41;0.47;;;0.47;;
2464;SDS011;1244;54.326;10.074;2023-02-25T05:21:18;0.40;;;0.40;;
2464;SDS011;1244;54.326;10.074;2023-02-25T05:23:46;0.40;;;0.40;;
2464;SDS011;1244;54.326;10.074;2023-02-25T05:26:13;0.40;;;0.40;;
2464;SDS011;1244;54.326;10.074;2023-02-25T05:28:39;0.40;;;0.40;;
2464;SDS011;1244;54.326;10.074;2023-02-25T05:31:08;0.50;;;0.50;;
2464;SDS011;1244;54.326;10.074;2023-02-25T05:33:36;0.43;;;0.43;;
2464;SDS011;1244;54.326;10.074;2023-02-25T05:36:05;0.40;;;0.40;;
2464;SDS011;1244;54.326;10.074;2023-02-25T05:38:32;0.47;;;0.47;;
2464;SDS011;1244;54.326;10.074;2023-02-25T05:40:58;0.30;;;0.30;;
2464;SDS011;1244;54.326;10.074;2023-02-25T05:43:24;0.50;;;0.50;;
2464;SDS011;1244;54.326;10.074;2023-02-25T05:45:53;0.50;;;0.50;;
2464;SDS011;1244;54.326;10.074;2023-02-25T05:48:19;0.40;;;0.40;;
2464;SDS011;1244;54.326;10.074;2023-02-25T05:50:45;0.40;;;0.40;;
2464;SDS011;1244;54.326;10.074;2023-02-25T05:53:10;0.40;;;0.40;;
2464;SDS011;1244;54.326;10.074;2023-02-25T05:55:39;0.40;;;0.40;;
2464;SDS011;1244;54.326;10.074;2023-02-25T05:58:09;0.40;;;0.40;;
2464;SDS011;1244;54.326;10.074;2023-02-25T06:00:35;0.40;;;0.40;;
2464;SDS011;1244;54.326;10.074;2023-02-25T06:03:01;0.40;;;0.40;;
2464;SDS011;1244;54.326;10.074;2023-02-25T06:05:27;0.40;;;0.40;;
2464;SDS011;1244;54.326;10.074;2023-02-25T06:07:54;0.40;;;0.40;;
2464;SDS011;1244;54.326;10.074;2023-02-25T06:10:20;0.47;;;0.47;;
2464;SDS011;1244;54.326;10.074;2023-02-25T06:12:46;0.50;;;0.50;;
2464;SDS011;1244;54.326;10.074;2023-02-25T06:15:11;0.43;;;0.43;;
2464;SDS011;1244;54.326;10.074;2023-02-25T06:17:38;0.40;;;0.40;;
2464;SDS011;1244;54.326;10.074;2023-02-25T06:20:04;0.50;;;0.50;;
2464;SDS011;1244;54.326;10.074;2023-02-25T06:22:30;0.40;;;0.40;;
2464;SDS011;1244;54.326;10.074;2023-02-25T06:24:56;0.50;;;0.50;;
2464;SDS011;1244;54.326;10.074;2023-02-25T06:27:21;0.40;;;0.40;;
2464;SDS011;1244;54.326;10.074;2023-02-25T06:29:47;0.50;;;0.50;;
2464;SDS011;1244;54.326;10.074;2023-02-25T06:32:13;0.40;;;0.40;;
2464;SDS011;1244;54.326;10.074;2023-02-25T06:34:39;0.57;;;0.57;;
2464;SDS011;1244;54.326;10.074;2023-02-25T06:37:05;0.40;;;0.40;;
2464;SDS011;1244;54.326;10.074;2023-02-25T06:39:31;0.40;;;0.40;;
2464;SDS011;1244;54.326;10.074;2023-02-25T06:41:57;0.50;;;0.50;;
2464;SDS011;1244;54.326;10.074;2023-02-25T06:44:23;0.50;;;0.50;;
2464;SDS011;1244;54.326;10.074;2023-02-25T06:46:49;0.50;;;0.50;;
2464;SDS011;1244;54.326;10.074;2023-02-25T06:49:19;0.30;;;0.30;;
2464;SDS011;1244;54.326;10.074;2023-02-25T06:51:45;0.40;;;0.40;;
2464;SDS011;1244;54.326;10.074;2023-02-25T06:54:11;0.40;;;0.40;;
2464;SDS011;1244;54.326;10.074;2023-02-25T06:56:37;0.40;;;0.40;;
2464;SDS011;1244;54.326;10.074;2023-02-25T06:59:02;0.40;;;0.40;;
2464;SDS011;1244;54.326;10.074;2023-02-25T07:01:28;0.50;;;0.50;;
2464;SDS011;1244;54.326;10.074;2023-02-25T07:03:54;0.50;;;0.50;;
2464;SDS011;1244;54.326;10.074;2023-02-25T07:06:20;0.40;;;0.40;;
2464;SDS011;1244;54.326;10.074;2023-02-25T07:08:45;0.40;;;0.40;;
2464;SDS011;1244;54.326;10.074;2023-02-25T07:13:43;0.40;;;0.40;;
2464;SDS011;1244;54.326;10.074;2023-02-25T07:16:11;0.50;;;0.50;;
2464;SDS011;1244;54.326;10.074;2023-02-25T07:18:38;0.50;;;0.50;;
2464;SDS011;1244;54.326;10.074;2023-02-25T07:21:04;0.40;;;0.40;;
2464;SDS011;1244;54.326;10.074;2023-02-25T07:23:30;0.40;;;0.40;;
2464;SDS011;1244;54.326;10.074;2023-02-25T07:25:55;0.43;;;0.43;;
2464;SDS011;1244;54.326;10.074;2023-02-25T07:28:21;0.40;;;0.40;;
2464;SDS011;1244;54.326;10.074;2023-02-25T07:30:46;0.40;;;0.40;;
2464;SDS011;1244;54.326;10.074;2023-02-25T07:33:12;0.50;;;0.50;;
2464;SDS011;1244;54.326;10.074;2023-02-25T07:35:37;0.40;;;0.40;;
2464;SDS011;1244;54.326;10.074;2023-02-25T07:38:03;0.50;;;0.50;;
2464;SDS011;1244;54.326;10.074;2023-02-25T07:40:28;0.50;;;0.50;;
2464;SDS011;1244;54.326;10.074;2023-02-25T07:42:54;0.50;;;0.50;;
2464;SDS011;1244;54.326;10.074;2023-02-25T07:45:19;0.30;;;0.30;;
2464;SDS011;1244;54.326;10.074;2023-02-25T07:47:45;0.50;;;0.50;;
2464;SDS011;1244;54.326;10.074;2023-02-25T07:50:10;0.50;;;0.50;;
2464;SDS011;1244;54.326;10.074;2023-02-25T07:52:36;0.40;;;0.40;;
2464;SDS011;1244;54.326;10.074;2023-02-25T07:55:03;0.43;;;0.43;;
2464;SDS011;1244;54.326;10.074;2023-02-25T07:57:30;0.50;;;0.50;;
2464;SDS011;1244;54.326;10.074;2023-02-25T07:59:56;0.27;;;0.27;;
2464;SDS011;1244;54.326;10.074;2023-02-25T08:02:22;0.43;;;0.43;;
2464;SDS011;1244;54.326;10.074;2023-02-25T08:04:48;0.50;;;0.50;;
2464;SDS011;1244;54.326;10.074;2023-02-25T08:07:14;0.50;;;0.50;;
2464;SDS011;1244;54.326;10.074;2023-02-25T08:09:39;0.40;;;0.40;;
2464;SDS011;1244;54.326;10.074;2023-02-25T08:12:05;0.40;;;0.40;;
2464;SDS011;1244;54.326;10.074;2023-02-25T08:14:31;0.50;;;0.50;;
2464;SDS011;1244;54.326;10.074;2023-02-25T08:16:57;0.40;;;0.40;;
2464;SDS011;1244;54.326;10.074;2023-02-25T08:19:22;0.30;;;0.30;;
2464;SDS011;1244;54.326;10.074;2023-02-25T08:21:48;0.50;;;0.50;;
2464;SDS011;1244;54.326;10.074;2023-02-25T08:24:13;0.50;;;0.50;;
2464;SDS011;1244;54.326;10.074;2023-02-25T08:26:39;0.50;;;0.50;;
2464;SDS011;1244;54.326;10.074;2023-02-25T08:29:05;0.50;;;0.50;;
2464;SDS011;1244;54.326;10.074;2023-02-25T08:31:31;0.50;;;0.50;;
2464;SDS011;1244;54.326;10.074;2023-02-25T08:33:57;0.50;;;0.50;;
2464;SDS011;1244;54.326;10.074;2023-02-25T08:36:24;0.50;;;0.50;;
2464;SDS011;1244;54.326;10.074;2023-02-25T08:38:51;0.50;;;0.50;;
2464;SDS011;1244;54.326;10.074;2023-02-25T08:41:20;0.57;;;0.57;;
2464;SDS011;1244;54.326;10.074;2023-02-25T08:43:49;0.50;;;0.50;;
2464;SDS011;1244;54.326;10.074;2023-02-25T08:46:18;0.40;;;0.40;;
2464;SDS011;1244;54.326;10.074;2023-02-25T08:48:44;0.40;;;0.40;;
2464;SDS011;1244;54.326;10.074;2023-02-25T08:51:12;0.40;;;0.40;;
2464;SDS011;1244;54.326;10.074;2023-02-25T08:53:39;0.60;;;0.60;;
2464;SDS011;1244;54.326;10.074;2023-02-25T08:56:05;0.40;;;0.40;;
2464;SDS011;1244;54.326;10.074;2023-02-25T08:58:32;0.60;;;0.60;;
2464;SDS011;1244;54.326;10.074;2023-02-25T09:00:58;0.40;;;0.40;;
2464;SDS011;1244;54.326;10.074;2023-02-25T09:03:24;0.40;;;0.40;;
2464;SDS011;1244;54.326;10.074;2023-02-25T09:05:50;0.43;;;0.43;;
2464;SDS011;1244;54.326;10.074;2023-02-25T09:08:17;0.50;;;0.50;;
2464;SDS011;1244;54.326;10.074;2023-02-25T09:10:42;0.30;;;0.30;;
2464;SDS011;1244;54.326;10.074;2023-02-25T09:13:10;0.50;;;0.50;;
2464;SDS011;1244;54.326;10.074;2023-02-25T09:15:36;0.43;;;0.43;;
2464;SDS011;1244;54.326;10.074;2023-02-25T09:18:02;0.50;;;0.50;;
2464;SDS011;1244;54.326;10.074;2023-02-25T09:20:27;0.40;;;0.40;;
2464;SDS011;1244;54.326;10.074;2023-02-25T09:22:53;0.47;;;0.47;;
2464;SDS011;1244;54.326;10.074;2023-02-25T09:25:23;0.40;;;0.40;;
2464;SDS011;1244;54.326;10.074;2023-02-25T09:27:49;0.50;;;0.50;;
2464;SDS011;1244;54.326;10.074;2023-02-25T09:30:15;0.40;;;0.40;;
2464;SDS011;1244;54.326;10.074;2023-02-25T09:32:41;0.50;;;0.50;;
2464;SDS011;1244;54.326;10.074;2023-02-25T09:35:06;0.40;;;0.40;;
2464;SDS011;1244;54.326;10.074;2023-02-25T09:37:33;0.40;;;0.40;;
2464;SDS011;1244;54.326;10.074;2023-02-25T09:39:59;0.50;;;0.50;;
2464;SDS011;1244;54.326;10.074;2023-02-25T09:42:27;0.47;;;0.47;;
2464;SDS011;1244;54.326;10.074;2023-02-25T09:45:08;0.40;;;0.40;;
2464;SDS011;1244;54.326;10.074;2023-02-25T09:50:15;0.40;;;0.40;;
2464;SDS011;1244;54.326;10.074;2023-02-25T09:55:34;0.40;;;0.40;;
2464;SDS011;1244;54.326;10.074;2023-02-25T10:00:39;0.40;;;0.40;;
2464;SDS011;1244;54.326;10.074;2023-02-25T10:06:04;0.40;;;0.40;;
2464;SDS011;1244;54.326;10.074;2023-02-25T10:08:49;0.40;;;0.40;;
2464;SDS011;1244;54.326;10.074;2023-02-25T10:17:19;0.30;;;0.30;;
2464;SDS011;1244;54.326;10.074;2023-02-25T10:20:02;0.40;;;0.40;;
2464;SDS011;1244;54.326;10.074;2023-02-25T10:22:53;0.40;;;0.40;;
2464;SDS011;1244;54.326;10.074;2023-02-25T10:25:43;0.40;;;0.40;;
2464;SDS011;1244;54.326;10.074;2023-02-25T10:28:31;0.20;;;0.20;;
2464;SDS011;1244;54.326;10.074;2023-02-25T10:31:11;0.40;;;0.40;;
2464;SDS011;1244;54.326;10.074;2023-02-25T10:33:40;0.30;;;0.30;;
2464;SDS011;1244;54.326;10.074;2023-02-25T10:38:55;0.30;;;0.30;;
2464;SDS011;1244;54.326;10.074;2023-02-25T10:41:21;0.40;;;0.40;;
2464;SDS011;1244;54.326;10.074;2023-02-25T10:43:51;0.30;;;0.30;;
2464;SDS011;1244;54.326;10.074;2023-02-25T10:46:21;0.37;;;0.37;;
2464;SDS011;1244;54.326;10.074;2023-02-25T10:54:49;0.30;;;0.30;;
2464;SDS011;1244;54.326;10.074;2023-02-25T10:57:22;0.30;;;0.30;;
2464;SDS011;1244;54.326;10.074;2023-02-25T11:00:07;0.37;;;0.37;;
2464;SDS011;1244;54.326;10.074;2023-02-25T11:02:50;0.30;;;0.30;;
2464;SDS011;1244;54.326;10.074;2023-02-25T11:05:29;0.30;;;0.30;;
2464;SDS011;1244;54.326;10.074;2023-02-25T11:08:01;0.30;;;0.30;;
2464;SDS011;1244;54.326;10.074;2023-02-25T11:10:31;0.30;;;0.30;;
2464;SDS011;1244;54.326;10.074;2023-02-25T11:12:58;0.30;;;0.30;;
2464;SDS011;1244;54.326;10.074;2023-02-25T11:17:53;0.30;;;0.30;;
2464;SDS011;1244;54.326;10.074;2023-02-25T11:20:23;0.30;;;0.30;;
2464;SDS011;1244;54.326;10.074;2023-02-25T11:22:50;0.30;;;0.30;;
2464;SDS011;1244;54.326;10.074;2023-02-25T11:25:23;0.30;;;0.30;;
2464;SDS011;1244;54.326;10.074;2023-02-25T11:28:02;0.20;;;0.20;;
2464;SDS011;1244;54.326;10.074;2023-02-25T11:30:38;0.20;;;0.20;;
2464;SDS011;1244;54.326;10.074;2023-02-25T11:33:18;0.20;;;0.20;;
2464;SDS011;1244;54.326;10.074;2023-02-25T11:35:53;0.20;;;0.20;;
2464;SDS011;1244;54.326;10.074;2023-02-25T11:38:26;0.30;;;0.30;;
2464;SDS011;1244;54.326;10.074;2023-02-25T11:40:59;0.20;;;0.20;;
2464;SDS011;1244;54.326;10.074;2023-02-25T11:43:26;0.20;;;0.20;;
2464;SDS011;1244;54.326;10.074;2023-02-25T11:45:58;0.20;;;0.20;;
2464;SDS011;1244;54.326;10.074;2023-02-25T11:48:36;0.20;;;0.20;;
2464;SDS011;1244;54.326;10.074;2023-02-25T11:51:35;0.20;;;0.20;;
2464;SDS011;1244;54.326;10.074;2023-02-25T11:54:20;0.20;;;0.20;;
2464;SDS011;1244;54.326;10.074;2023-02-25T11:56:50;0.20;;;0.20;;
2464;SDS011;1244;54.326;10.074;2023-02-25T12:04:57;0.20;;;0.20;;
2464;SDS011;1244;54.326;10.074;2023-02-25T12:07:37;0.20;;;0.20;;
2464;SDS011;1244;54.326;10.074;2023-02-25T12:32:51;0.20;;;0.20;;
2464;SDS011;1244;54.326;10.074;2023-02-25T12:41:38;0.20;;;0.20;;
2464;SDS011;1244;54.326;10.074;2023-02-25T12:44:11;0.20;;;0.20;;
2464;SDS011;1244;54.326;10.074;2023-02-25T12:47:03;0.20;;;0.20;;
2464;SDS011;1244;54.326;10.074;2023-02-25T12:55:35;0.10;;;0.10;;
2464;SDS011;1244;54.326;10.074;2023-02-25T13:00:49;0.10;;;0.10;;
2464;SDS011;1244;54.326;10.074;2023-02-25T13:06:25;0.20;;;0.20;;
2464;SDS011;1244;54.326;10.074;2023-02-25T13:09:02;0.10;;;0.10;;
2464;SDS011;1244;54.326;10.074;2023-02-25T13:14:48;0.20;;;0.20;;
2464;SDS011;1244;54.326;10.074;2023-02-25T13:28:34;0.10;;;0.10;;
2464;SDS011;1244;54.326;10.074;2023-02-25T13:34:21;0.10;;;0.10;;
2464;SDS011;1244;54.326;10.074;2023-02-25T13:37:08;0.10;;;0.10;;
2464;SDS011;1244;54.326;10.074;2023-02-25T13:51:59;0.10;;;0.10;;
2464;SDS011;1244;54.326;10.074;2023-02-25T13:54:57;0.10;;;0.10;;
2464;SDS011;1244;54.326;10.074;2023-02-25T13:57:46;0.20;;;0.20;;
2464;SDS011;1244;54.326;10.074;2023-02-25T14:00:50;0.20;;;0.20;;
2464;SDS011;1244;54.326;10.074;2023-02-25T14:06:44;0.30;;;0.30;;
2464;SDS011;1244;54.326;10.074;2023-02-25T14:12:20;0.20;;;0.20;;
2464;SDS011;1244;54.326;10.074;2023-02-25T14:18:01;0.30;;;0.30;;
2464;SDS011;1244;54.326;10.074;2023-02-25T14:23:51;0.30;;;0.30;;
2464;SDS011;1244;54.326;10.074;2023-02-25T14:26:31;0.30;;;0.30;;
2464;SDS011;1244;54.326;10.074;2023-02-25T14:29:20;0.30;;;0.30;;
2464;SDS011;1244;54.326;10.074;2023-02-25T14:35:25;0.20;;;0.20;;
2464;SDS011;1244;54.326;10.074;2023-02-25T14:38:20;0.17;;;0.17;;
2464;SDS011;1244;54.326;10.074;2023-02-25T14:41:01;0.20;;;0.20;;
2464;SDS011;1244;54.326;10.074;2023-02-25T14:43:39;0.10;;;0.10;;
2464;SDS011;1244;54.326;10.074;2023-02-25T14:48:50;0.20;;;0.20;;
2464;SDS011;1244;54.326;10.074;2023-02-25T14:51:31;0.20;;;0.20;;
2464;SDS011;1244;54.326;10.074;2023-02-25T14:54:28;0.20;;;0.20;;
2464;SDS011;1244;54.326;10.074;2023-02-25T14:57:37;0.20;;;0.20;;
2464;SDS011;1244;54.326;10.074;2023-02-25T15:17:35;0.30;;;0.30;;
2464;SDS011;1244;54.326;10.074;2023-02-25T15:28:50;0.30;;;0.30;;
2464;SDS011;1244;54.326;10.074;2023-02-25T15:33:52;0.40;;;0.40;;
2464;SDS011;1244;54.326;10.074;2023-02-25T15:36:39;0.33;;;0.33;;
2464;SDS011;1244;54.326;10.074;2023-02-25T15:39:07;0.40;;;0.40;;
2464;SDS011;1244;54.326;10.074;2023-02-25T15:41:37;0.30;;;0.30;;
2464;SDS011;1244;54.326;10.074;2023-02-25T15:46:37;0.30;;;0.30;;
2464;SDS011;1244;54.326;10.074;2023-02-25T15:49:17;0.30;;;0.30;;
2464;SDS011;1244;54.326;10.074;2023-02-25T15:51:48;0.30;;;0.30;;
2464;SDS011;1244;54.326;10.074;2023-02-25T15:56:53;0.30;;;0.30;;
2464;SDS011;1244;54.326;10.074;2023-02-25T16:05:01;0.30;;;0.30;;
2464;SDS011;1244;54.326;10.074;2023-02-25T16:07:35;0.30;;;0.30;;
2464;SDS011;1244;54.326;10.074;2023-02-25T16:12:51;0.30;;;0.30;;
2464;SDS011;1244;54.326;10.074;2023-02-25T16:17:48;0.23;;;0.23;;
2464;SDS011;1244;54.326;10.074;2023-02-25T16:20:17;0.30;;;0.30;;
2464;SDS011;1244;54.326;10.074;2023-02-25T16:22:53;0.40;;;0.40;;
2464;SDS011;1244;54.326;10.074;2023-02-25T16:25:23;0.40;;;0.40;;
2464;SDS011;1244;54.326;10.074;2023-02-25T16:36:53;0.40;;;0.40;;
2464;SDS011;1244;54.326;10.074;2023-02-25T16:41:23;0.33;;;0.33;;
2464;SDS011;1244;54.326;10.074;2023-02-25T16:43:49;0.40;;;0.40;;
2464;SDS011;1244;54.326;10.074;2023-02-25T16:46:15;0.30;;;0.30;;
2464;SDS011;1244;54.326;10.074;2023-02-25T16:48:55;0.40;;;0.40;;
2464;SDS011;1244;54.326;10.074;2023-02-25T16:51:27;0.30;;;0.30;;
2464;SDS011;1244;54.326;10.074;2023-02-25T16:54:02;0.40;;;0.40;;
2464;SDS011;1244;54.326;10.074;2023-02-25T16:56:29;0.50;;;0.50;;
2464;SDS011;1244;54.326;10.074;2023-02-25T17:01:35;0.30;;;0.30;;
2464;SDS011;1244;54.326;10.074;2023-02-25T17:04:18;0.37;;;0.37;;
2464;SDS011;1244;54.326;10.074;2023-02-25T17:09:45;0.43;;;0.43;;
2464;SDS011;1244;54.326;10.074;2023-02-25T17:12:14;0.40;;;0.40;;
2464;SDS011;1244;54.326;10.074;2023-02-25T17:14:46;0.43;;;0.43;;
2464;SDS011;1244;54.326;10.074;2023-02-25T17:17:20;0.30;;;0.30;;
2464;SDS011;1244;54.326;10.074;2023-02-25T17:19:49;0.50;;;0.50;;
2464;SDS011;1244;54.326;10.074;2023-02-25T17:22:20;0.40;;;0.40;;
2464;SDS011;1244;54.326;10.074;2023-02-25T17:24:47;0.40;;;0.40;;
2464;SDS011;1244;54.326;10.074;2023-02-25T17:27:14;0.40;;;0.40;;
2464;SDS011;1244;54.326;10.074;2023-02-25T17:29:41;0.40;;;0.40;;
2464;SDS011;1244;54.326;10.074;2023-02-25T17:35:00;0.37;;;0.37;;
2464;SDS011;1244;54.326;10.074;2023-02-25T17:37:27;0.30;;;0.30;;
2464;SDS011;1244;54.326;10.074;2023-02-25T17:39:54;0.40;;;0.40;;
2464;SDS011;1244;54.326;10.074;2023-02-25T17:44:55;0.40;;;0.40;;
2464;SDS011;1244;54.326;10.074;2023-02-25T17:47:22;0.40;;;0.40;;
2464;SDS011;1244;54.326;10.074;2023-02-25T17:49:50;0.40;;;0.40;;
2464;SDS011;1244;54.326;10.074;2023-02-25T17:52:18;0.40;;;0.40;;
2464;SDS011;1244;54.326;10.074;2023-02-25T17:54:50;0.37;;;0.37;;
2464;SDS011;1244;54.326;10.074;2023-02-25T17:57:25;0.40;;;0.40;;
2464;SDS011;1244;54.326;10.074;2023-02-25T17:59:56;0.40;;;0.40;;
2464;SDS011;1244;54.326;10.074;2023-02-25T18:02:32;0.50;;;0.50;;
2464;SDS011;1244;54.326;10.074;2023-02-25T18:10:09;0.40;;;0.40;;
2464;SDS011;1244;54.326;10.074;2023-02-25T18:12:52;0.50;;;0.50;;
2464;SDS011;1244;54.326;10.074;2023-02-25T18:15:20;0.40;;;0.40;;
2464;SDS011;1244;54.326;10.074;2023-02-25T18:17:51;0.40;;;0.40;;
2464;SDS011;1244;54.326;10.074;2023-02-25T18:20:25;0.40;;;0.40;;
2464;SDS011;1244;54.326;10.074;2023-02-25T18:22:54;0.40;;;0.40;;
2464;SDS011;1244;54.326;10.074;2023-02-25T18:25:28;0.40;;;0.40;;
2464;SDS011;1244;54.326;10.074;2023-02-25T18:27:59;0.40;;;0.40;;
2464;SDS011;1244;54.326;10.074;2023-02-25T18:30:26;0.50;;;0.50;;
2464;SDS011;1244;54.326;10.074;2023-02-25T18:32:53;0.50;;;0.50;;
2464;SDS011;1244;54.326;10.074;2023-02-25T18:35:19;0.40;;;0.40;;
2464;SDS011;1244;54.326;10.074;2023-02-25T18:37:46;0.40;;;0.40;;
2464;SDS011;1244;54.326;10.074;2023-02-25T18:40:14;0.50;;;0.50;;
2464;SDS011;1244;54.326;10.074;2023-02-25T18:42:41;0.40;;;0.40;;
2464;SDS011;1244;54.326;10.074;2023-02-25T18:45:12;0.50;;;0.50;;
2464;SDS011;1244;54.326;10.074;2023-02-25T18:47:41;0.40;;;0.40;;
2464;SDS011;1244;54.326;10.074;2023-02-25T18:50:07;0.30;;;0.30;;